createdAt,value
2022-10-23T00:01:26.544Z,18.83
2022-10-23T00:03:55.100Z,16.77
2022-10-23T00:06:22.270Z,19.27
2022-10-23T00:08:49.916Z,16.00
2022-10-23T00:11:18.834Z,20.65
2022-10-23T00:13:46.470Z,15.13
2022-10-23T00:16:13.966Z,22.55
2022-10-23T00:18:41.128Z,13.40
2022-10-23T00:21:09.356Z,19.00
2022-10-23T00:23:36.631Z,13.32
2022-10-23T00:26:04.395Z,17.08
2022-10-23T00:28:31.609Z,18.48
2022-10-23T00:30:58.711Z,17.27
2022-10-23T00:33:25.865Z,14.95
2022-10-23T00:35:53.004Z,14.93
2022-10-23T00:38:20.101Z,21.17
2022-10-23T00:40:47.240Z,16.83
2022-10-23T00:43:18.085Z,17.70
2022-10-23T00:45:45.468Z,16.77
2022-10-23T00:48:12.925Z,14.52
2022-10-23T00:50:40.054Z,15.02
2022-10-23T00:53:07.858Z,15.77
2022-10-23T00:55:36.277Z,17.77
2022-10-23T00:58:03.682Z,16.33
2022-10-23T01:00:41.077Z,14.88
2022-10-23T01:03:08.542Z,19.15
2022-10-23T01:05:43.414Z,18.50
2022-10-23T01:08:13.059Z,18.17
2022-10-23T01:10:45.110Z,20.33
2022-10-23T01:13:15.464Z,20.95
2022-10-23T01:15:42.558Z,21.67
2022-10-23T01:18:17.925Z,14.32
2022-10-23T01:20:44.986Z,16.02
2022-10-23T01:23:18.406Z,14.15
2022-10-23T01:26:11.886Z,14.40
2022-10-23T01:28:39.136Z,16.60
2022-10-23T01:31:10.925Z,14.07
2022-10-23T01:33:41.416Z,14.90
2022-10-23T01:36:12.309Z,18.10
2022-10-23T01:38:45.371Z,16.05
2022-10-23T01:41:18.288Z,16.23
2022-10-23T01:44:11.393Z,16.35
2022-10-23T01:46:39.314Z,14.63
2022-10-23T01:49:08.582Z,16.38
2022-10-23T01:55:00.385Z,15.13
2022-10-23T01:57:28.901Z,15.63
2022-10-23T02:00:02.208Z,17.27
2022-10-23T02:02:31.089Z,15.35
2022-10-23T02:05:04.298Z,17.05
2022-10-23T02:07:31.747Z,16.48
2022-10-23T02:09:59.165Z,18.63
2022-10-23T02:12:38.539Z,19.60
2022-10-23T02:15:12.247Z,12.65
2022-10-23T02:17:39.511Z,16.20
2022-10-23T02:20:17.989Z,17.27
2022-10-23T02:22:50.627Z,15.98
2022-10-23T02:25:20.048Z,14.27
2022-10-23T02:27:53.156Z,19.83
2022-10-23T02:30:20.736Z,17.45
2022-10-23T02:32:49.718Z,15.35
2022-10-23T02:35:17.470Z,13.95
2022-10-23T02:37:44.922Z,15.18
2022-10-23T02:40:12.581Z,12.25
2022-10-23T02:42:39.651Z,15.70
2022-10-23T02:45:18.571Z,15.63
2022-10-23T02:47:51.721Z,17.92
2022-10-23T02:50:34.010Z,15.02
2022-10-23T02:53:19.670Z,19.90
2022-10-23T02:55:56.265Z,15.63
2022-10-23T02:58:38.048Z,16.55
2022-10-23T03:01:16.759Z,17.92
2022-10-23T03:03:51.727Z,14.40
2022-10-23T03:06:19.249Z,21.50
2022-10-23T03:08:50.432Z,17.95
2022-10-23T03:11:17.827Z,15.27
2022-10-23T03:13:44.913Z,14.32
2022-10-23T03:16:12.028Z,15.98
2022-10-23T03:18:39.488Z,19.50
2022-10-23T03:21:06.757Z,19.83
2022-10-23T03:23:33.925Z,14.77
2022-10-23T03:26:01.312Z,17.85
2022-10-23T03:28:28.443Z,15.85
2022-10-23T03:30:56.274Z,15.90
2022-10-23T03:33:23.589Z,16.40
2022-10-23T03:35:50.977Z,17.92
2022-10-23T03:38:18.094Z,19.38
2022-10-23T03:40:45.196Z,17.17
2022-10-23T03:43:12.521Z,16.17
2022-10-23T03:45:39.752Z,13.80
2022-10-23T03:48:07.146Z,17.55
2022-10-23T03:50:34.595Z,13.85
2022-10-23T03:53:01.994Z,19.13
2022-10-23T03:55:29.268Z,19.30
2022-10-23T03:57:56.532Z,18.20
2022-10-23T04:00:23.712Z,17.38
2022-10-23T04:02:50.801Z,14.82
2022-10-23T04:05:18.097Z,16.98
2022-10-23T04:07:45.377Z,19.75
2022-10-23T04:10:12.648Z,12.60
2022-10-23T04:12:39.932Z,16.27
2022-10-23T04:15:07.278Z,14.63
2022-10-23T04:17:34.556Z,13.95
2022-10-23T04:20:01.670Z,16.25
2022-10-23T04:22:28.959Z,13.48
2022-10-23T04:24:56.150Z,11.90
2022-10-23T04:27:23.525Z,18.70
2022-10-23T04:29:53.187Z,17.15
2022-10-23T04:32:22.657Z,14.50
2022-10-23T04:34:49.879Z,13.35
2022-10-23T04:37:16.995Z,13.45
2022-10-23T04:39:44.077Z,15.48
2022-10-23T04:42:11.557Z,16.00
2022-10-23T04:44:38.649Z,11.63
2022-10-23T04:47:05.800Z,12.30
2022-10-23T04:49:32.950Z,10.70
2022-10-23T04:52:00.114Z,14.38
2022-10-23T04:54:27.214Z,16.90
2022-10-23T04:56:54.340Z,12.35
2022-10-23T04:59:21.420Z,14.07
2022-10-23T05:01:48.634Z,11.40
2022-10-23T05:04:15.808Z,12.38
2022-10-23T05:06:42.905Z,13.13
2022-10-23T05:09:10.020Z,19.40
2022-10-23T05:11:37.143Z,13.10
2022-10-23T05:14:04.247Z,11.75
2022-10-23T05:16:35.589Z,10.15
2022-10-23T05:19:03.104Z,14.13
2022-10-23T05:21:31.547Z,11.93
2022-10-23T05:26:27.073Z,9.50
2022-10-23T05:28:54.229Z,13.13
2022-10-23T05:31:22.780Z,12.50
2022-10-23T05:33:50.005Z,15.10
2022-10-23T05:36:17.575Z,13.95
2022-10-23T05:38:45.861Z,16.02
2022-10-23T05:41:13.206Z,10.48
2022-10-23T05:43:40.365Z,11.70
2022-10-23T05:46:07.855Z,11.68
2022-10-23T05:48:35.506Z,11.15
2022-10-23T05:51:06.473Z,9.90
2022-10-23T05:53:34.579Z,11.27
2022-10-23T05:56:09.709Z,10.02
2022-10-23T05:58:37.000Z,10.35
2022-10-23T06:01:08.079Z,10.88
2022-10-23T06:03:35.661Z,8.85
2022-10-23T06:06:02.796Z,11.32
2022-10-23T06:08:30.177Z,7.72
2022-10-23T06:10:57.300Z,9.63
2022-10-23T06:13:24.617Z,12.02
2022-10-23T06:15:51.705Z,11.98
2022-10-23T06:18:18.752Z,13.55
2022-10-23T06:20:45.889Z,10.40
2022-10-23T06:23:12.998Z,9.25
2022-10-23T06:25:40.062Z,11.63
2022-10-23T06:28:07.156Z,12.68
2022-10-23T06:30:34.353Z,11.40
2022-10-23T06:33:03.386Z,11.82
2022-10-23T06:35:33.321Z,12.93
2022-10-23T06:38:00.488Z,11.57
2022-10-23T06:40:27.605Z,11.60
2022-10-23T06:42:56.320Z,15.23
2022-10-23T06:45:23.516Z,11.23
2022-10-23T06:47:51.618Z,6.18
2022-10-23T06:50:18.720Z,12.32
2022-10-23T06:52:47.287Z,8.45
2022-10-23T06:55:14.903Z,13.32
2022-10-23T06:57:42.341Z,10.50
2022-10-23T07:00:10.162Z,14.95
2022-10-23T07:02:37.585Z,10.25
2022-10-23T07:05:07.699Z,13.05
2022-10-23T07:07:37.031Z,7.50
2022-10-23T07:10:04.790Z,9.95
2022-10-23T07:12:31.952Z,14.05
2022-10-23T07:14:59.038Z,14.82
2022-10-23T07:17:26.312Z,9.70
2022-10-23T07:19:53.485Z,12.65
2022-10-23T07:22:20.587Z,8.50
2022-10-23T07:24:47.755Z,10.23
2022-10-23T07:27:15.250Z,13.90
2022-10-23T07:29:42.704Z,11.27
2022-10-23T07:32:09.876Z,8.18
2022-10-23T07:34:37.461Z,10.70
2022-10-23T07:37:05.098Z,8.85
2022-10-23T07:39:32.230Z,10.70
2022-10-23T07:41:59.475Z,11.20
2022-10-23T07:44:27.773Z,8.35
2022-10-23T07:46:55.086Z,10.45
2022-10-23T07:49:22.233Z,10.30
2022-10-23T07:51:51.428Z,11.40
2022-10-23T07:54:18.936Z,12.50
2022-10-23T07:56:46.036Z,10.55
2022-10-23T07:59:13.863Z,12.80
2022-10-23T08:01:43.716Z,9.13
2022-10-23T08:04:11.496Z,8.73
2022-10-23T08:06:38.786Z,10.05
2022-10-23T08:09:06.946Z,7.55
2022-10-23T08:11:38.327Z,10.05
2022-10-23T08:14:06.574Z,9.73
2022-10-23T08:16:34.707Z,10.68
2022-10-23T08:19:02.144Z,11.07
2022-10-23T08:21:29.553Z,12.05
2022-10-23T08:23:57.416Z,10.48
2022-10-23T08:26:25.201Z,9.60
2022-10-23T08:28:53.352Z,9.63
2022-10-23T08:31:21.327Z,5.65
2022-10-23T08:36:18.477Z,9.50
2022-10-23T08:38:45.747Z,9.98
2022-10-23T08:41:33.380Z,8.90
2022-10-23T08:44:12.610Z,7.78
2022-10-23T08:50:15.071Z,5.85
2022-10-23T08:53:02.272Z,8.57
2022-10-23T08:55:50.249Z,7.82
2022-10-23T08:58:29.709Z,6.43
2022-10-23T09:00:56.979Z,9.65
2022-10-23T09:09:50.542Z,9.27
2022-10-23T09:12:18.982Z,10.35
2022-10-23T09:14:46.100Z,8.05
2022-10-23T09:19:42.380Z,6.40
2022-10-23T09:22:11.674Z,8.32
2022-10-23T09:24:38.913Z,6.88
2022-10-23T09:27:06.100Z,11.13
2022-10-23T09:29:39.056Z,6.60
2022-10-23T09:32:07.128Z,9.50
2022-10-23T09:34:35.246Z,6.35
2022-10-23T09:37:04.541Z,8.93
2022-10-23T09:39:37.875Z,5.20
2022-10-23T09:42:15.342Z,9.38
2022-10-23T09:44:48.614Z,8.30
2022-10-23T09:47:19.747Z,9.63
2022-10-23T09:49:51.939Z,7.53
2022-10-23T09:52:19.915Z,8.68
2022-10-23T09:54:52.240Z,7.90
2022-10-23T09:57:19.314Z,5.43
2022-10-23T09:59:51.096Z,8.48
2022-10-23T10:02:27.249Z,8.02
2022-10-23T10:04:54.735Z,6.32
2022-10-23T10:07:22.374Z,9.45
2022-10-23T10:09:49.940Z,5.80
2022-10-23T10:12:32.023Z,6.25
2022-10-23T10:15:02.241Z,8.48
2022-10-23T10:17:55.769Z,8.98
2022-10-23T10:20:30.864Z,8.23
2022-10-23T10:23:18.459Z,8.00
2022-10-23T10:26:04.178Z,5.75
2022-10-23T10:28:31.536Z,7.43
2022-10-23T10:31:01.509Z,6.60
2022-10-23T10:33:30.803Z,6.90
2022-10-23T10:36:18.650Z,9.50
2022-10-23T10:38:51.037Z,8.20
2022-10-23T10:41:18.145Z,10.07
2022-10-23T10:43:51.830Z,4.82
2022-10-23T10:46:48.264Z,4.72
2022-10-23T10:49:30.563Z,7.65
2022-10-23T10:52:07.900Z,7.05
2022-10-23T10:54:53.504Z,8.45
2022-10-23T10:57:34.895Z,5.40
2022-10-23T11:00:05.648Z,3.33
2022-10-23T11:02:36.701Z,11.23
2022-10-23T11:05:13.932Z,7.53
2022-10-23T11:07:52.727Z,6.13
2022-10-23T11:10:20.173Z,3.67
2022-10-23T11:12:47.974Z,6.43
2022-10-23T11:15:16.737Z,4.68
2022-10-23T11:17:49.185Z,5.32
2022-10-23T11:20:31.508Z,6.75
2022-10-23T11:23:17.418Z,7.55
2022-10-23T11:26:03.418Z,8.23
2022-10-23T11:28:48.407Z,3.45
2022-10-23T11:31:15.600Z,8.55
2022-10-23T11:33:58.872Z,6.15
2022-10-23T11:36:44.381Z,7.32
2022-10-23T11:39:31.015Z,4.90
2022-10-23T11:42:13.863Z,7.30
2022-10-23T11:44:42.810Z,8.07
2022-10-23T11:47:25.013Z,8.45
2022-10-23T11:49:52.527Z,6.72
2022-10-23T11:52:24.629Z,4.95
2022-10-23T11:55:05.553Z,5.03
2022-10-23T11:57:32.695Z,7.93
2022-10-23T12:00:00.452Z,6.10
2022-10-23T12:02:36.773Z,6.38
2022-10-23T12:05:08.069Z,8.48
2022-10-23T12:07:39.197Z,8.30
2022-10-23T12:10:21.061Z,6.07
2022-10-23T12:12:58.723Z,6.05
2022-10-23T12:15:27.019Z,5.03
2022-10-23T12:17:55.330Z,6.38
2022-10-23T12:20:25.558Z,6.13
2022-10-23T12:23:11.317Z,5.88
2022-10-23T12:25:44.184Z,7.68
2022-10-23T12:28:19.115Z,7.03
2022-10-23T12:30:48.369Z,8.13
2022-10-23T12:33:38.021Z,4.70
2022-10-23T12:36:05.150Z,4.82
2022-10-23T12:38:35.323Z,6.07
2022-10-23T12:41:11.061Z,7.47
2022-10-23T12:43:38.900Z,8.32
2022-10-23T12:46:17.909Z,3.45
2022-10-23T12:48:52.463Z,9.07
2022-10-23T12:53:49.035Z,6.03
2022-10-23T12:56:16.867Z,6.00
2022-10-23T12:58:51.674Z,5.10
2022-10-23T13:01:27.510Z,5.47
2022-10-23T13:04:06.351Z,6.78
2022-10-23T13:06:33.748Z,6.82
2022-10-23T13:09:01.441Z,6.47
2022-10-23T13:11:28.817Z,8.73
2022-10-23T13:13:56.052Z,7.05
2022-10-23T13:16:24.256Z,6.57
2022-10-23T13:18:52.181Z,5.70
2022-10-23T13:21:22.264Z,6.28
2022-10-23T13:23:49.901Z,5.22
2022-10-23T13:26:25.257Z,5.15
2022-10-23T13:28:52.552Z,8.40
2022-10-23T13:31:31.576Z,6.32
2022-10-23T13:34:01.547Z,8.45
2022-10-23T13:36:29.899Z,5.82
2022-10-23T13:41:24.131Z,8.32
2022-10-23T13:43:51.279Z,6.70
2022-10-23T13:46:19.453Z,4.50
2022-10-23T13:48:47.132Z,8.43
2022-10-23T13:51:20.445Z,6.80
2022-10-23T13:53:47.958Z,8.90
2022-10-23T13:56:16.137Z,7.55
2022-10-23T13:58:43.409Z,8.90
2022-10-23T14:01:20.419Z,5.03
2022-10-23T14:03:47.807Z,8.35
2022-10-23T14:06:14.929Z,6.43
2022-10-23T14:08:42.137Z,6.88
2022-10-23T14:11:10.578Z,4.53
2022-10-23T14:13:38.145Z,10.15
2022-10-23T14:16:05.569Z,7.68
2022-10-23T14:18:32.689Z,7.32
2022-10-23T14:21:03.129Z,5.68
2022-10-23T14:23:30.410Z,8.77
2022-10-23T14:26:08.213Z,7.10
2022-10-23T14:28:35.477Z,8.82
2022-10-23T14:31:07.127Z,7.95
2022-10-23T14:33:34.406Z,5.53
2022-10-23T14:36:01.731Z,7.85
2022-10-23T14:38:29.264Z,12.48
2022-10-23T14:40:56.739Z,6.78
2022-10-23T14:43:24.560Z,9.32
2022-10-23T14:45:52.105Z,6.63
2022-10-23T14:48:19.359Z,5.97
2022-10-23T14:50:47.924Z,8.02
2022-10-23T14:53:15.401Z,8.60
2022-10-23T14:55:42.637Z,7.22
2022-10-23T14:58:15.594Z,7.15
2022-10-23T15:00:42.883Z,9.80
2022-10-23T15:03:11.433Z,10.02
2022-10-23T15:05:41.788Z,8.48
2022-10-23T15:08:09.005Z,8.00
2022-10-23T15:10:40.002Z,7.75
2022-10-23T15:13:07.394Z,8.45
2022-10-23T15:15:34.546Z,6.22
2022-10-23T15:18:01.640Z,9.80
2022-10-23T15:20:28.827Z,9.48
2022-10-23T15:22:56.230Z,9.88
2022-10-23T15:25:23.561Z,9.02
2022-10-23T15:27:50.686Z,9.20
2022-10-23T15:30:19.557Z,13.82
2022-10-23T15:32:46.705Z,6.65
2022-10-23T15:35:13.820Z,12.63
2022-10-23T15:37:41.219Z,12.32
2022-10-23T15:40:08.936Z,13.07
2022-10-23T15:42:36.061Z,10.75
2022-10-23T15:45:03.348Z,7.00
2022-10-23T15:47:30.402Z,7.90
2022-10-23T15:49:58.690Z,15.05
2022-10-23T15:52:29.295Z,8.43
2022-10-23T15:54:56.375Z,27.15
2022-10-23T15:57:23.499Z,21.48
2022-10-23T15:59:51.146Z,15.65
2022-10-23T16:02:18.371Z,11.60
2022-10-23T16:04:45.758Z,15.27
2022-10-23T16:07:12.929Z,23.08
2022-10-23T16:09:40.011Z,17.92
2022-10-23T16:12:07.260Z,19.15
2022-10-23T16:14:34.393Z,14.30
2022-10-23T16:17:01.654Z,8.00
2022-10-23T16:19:29.008Z,6.57
2022-10-23T16:21:56.177Z,8.68
2022-10-23T16:24:23.256Z,6.78
2022-10-23T16:26:53.487Z,7.63
2022-10-23T16:29:24.368Z,11.13
2022-10-23T16:31:51.771Z,14.10
2022-10-23T16:34:18.866Z,11.23
2022-10-23T16:36:46.286Z,10.13
2022-10-23T16:39:14.115Z,11.57
2022-10-23T16:41:41.242Z,7.30
2022-10-23T16:44:08.370Z,12.20
2022-10-23T16:46:35.769Z,7.15
2022-10-23T16:49:03.319Z,9.13
2022-10-23T16:51:31.740Z,8.00
2022-10-23T16:56:28.681Z,8.18
2022-10-23T16:58:56.548Z,8.05
2022-10-23T17:01:25.402Z,11.05
2022-10-23T17:03:53.340Z,9.07
2022-10-23T17:06:22.735Z,8.07
2022-10-23T17:08:50.149Z,8.15
2022-10-23T17:11:17.208Z,7.70
2022-10-23T17:13:55.253Z,9.13
2022-10-23T17:16:29.965Z,10.35
2022-10-23T17:18:57.537Z,7.03
2022-10-23T17:21:24.928Z,7.57
2022-10-23T17:23:52.207Z,11.50
2022-10-23T17:26:22.376Z,7.82
2022-10-23T17:28:49.644Z,7.20
2022-10-23T17:31:24.104Z,14.68
2022-10-23T17:33:52.510Z,8.05
2022-10-23T17:38:46.844Z,15.07
2022-10-23T17:41:14.921Z,8.63
2022-10-23T17:43:42.327Z,7.82
2022-10-23T17:46:10.503Z,10.88
2022-10-23T17:48:39.260Z,12.27
2022-10-23T17:51:06.471Z,6.68
2022-10-23T17:53:34.706Z,7.32
2022-10-23T17:56:02.676Z,6.32
2022-10-23T17:58:30.242Z,7.15
2022-10-23T18:00:57.781Z,9.55
2022-10-23T18:03:25.046Z,7.93
2022-10-23T18:05:52.231Z,8.82
2022-10-23T18:08:19.321Z,8.68
2022-10-23T18:10:46.479Z,9.02
2022-10-23T18:13:13.691Z,10.02
2022-10-23T18:15:40.861Z,8.90
2022-10-23T18:18:07.990Z,5.97
2022-10-23T18:20:44.831Z,10.23
2022-10-23T18:23:12.194Z,7.82
2022-10-23T18:25:42.982Z,8.25
2022-10-23T18:28:10.064Z,7.65
2022-10-23T18:33:05.476Z,9.23
2022-10-23T18:35:36.058Z,7.45
2022-10-23T18:38:04.018Z,5.85
2022-10-23T18:40:32.373Z,10.13
2022-10-23T18:45:42.950Z,8.25
2022-10-23T18:48:14.284Z,7.13
2022-10-23T18:53:30.861Z,9.35
2022-10-23T18:58:39.265Z,8.65
2022-10-23T19:01:06.654Z,11.98
2022-10-23T19:03:34.098Z,10.15
2022-10-23T19:06:01.259Z,9.25
2022-10-23T19:08:29.978Z,7.50
2022-10-23T19:11:00.392Z,13.10
2022-10-23T19:13:27.568Z,14.18
2022-10-23T19:15:54.713Z,11.38
2022-10-23T19:18:21.893Z,6.75
2022-10-23T19:20:49.073Z,7.95
2022-10-23T19:23:16.669Z,11.32
2022-10-23T19:25:45.284Z,6.50
2022-10-23T19:28:12.446Z,11.65
2022-10-23T19:30:39.997Z,6.32
2022-10-23T19:33:07.103Z,8.88
2022-10-23T19:35:34.287Z,6.10
2022-10-23T19:38:01.457Z,6.47
2022-10-23T19:40:28.594Z,7.25
2022-10-23T19:42:55.755Z,10.27
2022-10-23T19:45:22.886Z,8.85
2022-10-23T19:47:50.071Z,7.15
2022-10-23T19:50:17.206Z,7.88
2022-10-23T19:52:44.404Z,7.07
2022-10-23T19:55:11.570Z,10.98
2022-10-23T19:57:38.708Z,7.90
2022-10-23T20:00:07.188Z,9.02
2022-10-23T20:05:08.525Z,8.25
2022-10-23T20:07:37.086Z,8.43
2022-10-23T20:10:07.425Z,10.20
2022-10-23T20:12:34.908Z,8.05
2022-10-23T20:15:02.189Z,9.15
2022-10-23T20:17:29.724Z,7.45
2022-10-23T20:19:56.882Z,6.30
2022-10-23T20:22:24.556Z,5.05
2022-10-23T20:24:51.724Z,3.70
2022-10-23T20:30:48.226Z,7.70
2022-10-23T20:33:15.430Z,5.55
2022-10-23T20:35:43.187Z,7.93
2022-10-23T20:38:10.599Z,3.28
2022-10-23T20:40:37.850Z,3.65
2022-10-23T20:43:05.406Z,2.83
2022-10-23T20:45:32.581Z,5.53
2022-10-23T20:47:59.689Z,6.53
2022-10-23T20:50:27.080Z,3.20
2022-10-23T20:52:54.249Z,4.78
2022-10-23T20:55:21.385Z,9.10
2022-10-23T20:57:48.501Z,4.07
2022-10-23T21:00:16.311Z,5.10
2022-10-23T21:02:47.004Z,4.03
2022-10-23T21:05:15.987Z,2.78
2022-10-23T21:07:43.169Z,5.57
2022-10-23T21:10:10.388Z,2.97
2022-10-23T21:12:37.561Z,3.10
2022-10-23T21:15:07.604Z,3.63
2022-10-23T21:17:38.701Z,4.70
2022-10-23T21:20:06.539Z,7.07
2022-10-23T21:22:33.810Z,3.20
2022-10-23T21:25:01.628Z,3.03
2022-10-23T21:27:28.778Z,4.20
2022-10-23T21:29:55.873Z,1.63
2022-10-23T21:32:23.003Z,3.20
2022-10-23T21:34:50.269Z,2.58
2022-10-23T21:37:17.415Z,2.55
2022-10-23T21:39:45.205Z,4.18
2022-10-23T21:42:13.329Z,2.13
2022-10-23T21:44:40.737Z,5.25
2022-10-23T21:47:07.917Z,4.03
2022-10-23T21:49:35.115Z,3.38
2022-10-23T21:52:02.259Z,4.72
2022-10-23T21:54:29.359Z,1.75
2022-10-23T21:56:56.485Z,3.03
2022-10-23T21:59:27.589Z,2.33
2022-10-23T22:01:57.258Z,4.78
2022-10-23T22:04:24.533Z,0.80
2022-10-23T22:06:51.694Z,8.38
2022-10-23T22:09:20.190Z,2.97
2022-10-23T22:14:14.345Z,2.45
2022-10-23T22:16:42.228Z,4.47
2022-10-23T22:19:11.233Z,3.85
2022-10-23T22:21:38.356Z,5.35
2022-10-23T22:24:05.543Z,4.22
2022-10-23T22:26:34.241Z,5.43
2022-10-23T22:29:02.764Z,6.13
2022-10-23T22:36:24.181Z,5.18
2022-10-23T22:38:51.267Z,5.13
2022-10-23T22:41:18.426Z,5.00
2022-10-23T22:43:45.555Z,3.45
2022-10-23T22:46:13.992Z,4.97
2022-10-23T22:53:36.153Z,6.60
2022-10-23T22:56:06.473Z,4.18
2022-10-23T22:58:33.832Z,3.85
2022-10-23T23:01:18.263Z,8.32
2022-10-23T23:03:46.046Z,4.00
2022-10-23T23:06:13.262Z,6.38
2022-10-23T23:08:41.413Z,6.85
2022-10-23T23:11:51.988Z,9.80
2022-10-23T23:14:23.138Z,5.60
2022-10-23T23:16:51.893Z,4.15
2022-10-23T23:19:19.005Z,5.28
2022-10-23T23:21:46.098Z,6.03
2022-10-23T23:24:13.369Z,7.88
2022-10-23T23:26:40.521Z,5.22
2022-10-23T23:29:07.606Z,6.07
2022-10-23T23:31:34.818Z,5.50
2022-10-23T23:34:01.951Z,5.70
2022-10-23T23:36:29.713Z,7.18
2022-10-23T23:38:57.418Z,4.68
2022-10-23T23:41:25.163Z,9.98
2022-10-23T23:43:53.979Z,6.68
2022-10-23T23:46:21.340Z,8.07
2022-10-23T23:48:49.570Z,7.47
2022-10-23T23:51:18.090Z,7.82
2022-10-23T23:56:12.409Z,6.78
2022-10-23T23:58:39.693Z,5.65
